createdAt,value
2022-12-11T00:01:37.846Z,27.23
2022-12-11T00:04:24.093Z,44.38
2022-12-11T00:07:11.009Z,45.47
2022-12-11T00:09:57.822Z,51.50
2022-12-11T00:12:44.796Z,107.43
2022-12-11T00:15:31.484Z,173.70
2022-12-11T00:18:18.458Z,77.95
2022-12-11T00:21:06.829Z,48.85
2022-12-11T00:23:53.635Z,33.70
2022-12-11T00:26:39.871Z,35.70
2022-12-11T00:29:26.839Z,33.88
2022-12-11T00:32:13.184Z,45.70
2022-12-11T00:35:00.034Z,40.30
2022-12-11T00:37:46.207Z,48.08
2022-12-11T00:40:37.230Z,190.95
2022-12-11T00:43:23.663Z,57.58
2022-12-11T00:46:11.403Z,68.80
2022-12-11T00:48:57.795Z,70.47
2022-12-11T00:51:44.395Z,44.47
2022-12-11T00:54:31.261Z,33.83
2022-12-11T00:57:17.668Z,40.17
2022-12-11T01:00:08.543Z,39.33
2022-12-11T01:02:55.410Z,35.30
2022-12-11T01:05:42.301Z,32.83
2022-12-11T01:08:32.703Z,31.95
2022-12-11T01:11:21.767Z,35.85
2022-12-11T01:14:10.145Z,33.13
2022-12-11T01:16:56.794Z,33.72
2022-12-11T01:19:43.439Z,92.90
2022-12-11T01:22:29.557Z,35.05
2022-12-11T01:25:16.503Z,53.95
2022-12-11T01:28:03.194Z,50.30
2022-12-11T01:30:50.404Z,43.05
2022-12-11T01:33:37.365Z,43.03
2022-12-11T01:36:24.569Z,33.65
2022-12-11T01:39:11.207Z,34.45
2022-12-11T01:41:58.599Z,45.10
2022-12-11T01:44:45.016Z,40.40
2022-12-11T01:47:31.345Z,37.42
2022-12-11T01:50:18.553Z,75.20
2022-12-11T01:53:08.464Z,49.38
2022-12-11T01:55:56.793Z,48.08
2022-12-11T01:58:47.420Z,44.78
2022-12-11T02:01:50.541Z,48.00
2022-12-11T02:04:39.777Z,34.53
2022-12-11T02:07:26.295Z,41.55
2022-12-11T02:10:13.451Z,46.45
2022-12-11T02:13:05.511Z,32.00
2022-12-11T02:16:00.806Z,52.30
2022-12-11T02:19:02.652Z,36.20
2022-12-11T02:21:51.672Z,38.58
2022-12-11T02:24:44.074Z,28.73
2022-12-11T02:27:48.675Z,35.50
2022-12-11T02:30:37.647Z,46.30
2022-12-11T02:33:33.663Z,43.15
2022-12-11T02:36:22.128Z,38.05
2022-12-11T02:39:12.537Z,33.25
2022-12-11T02:41:59.371Z,32.58
2022-12-11T02:44:47.140Z,34.72
2022-12-11T02:47:33.861Z,31.70
2022-12-11T02:50:23.606Z,32.42
2022-12-11T02:53:12.462Z,28.02
2022-12-11T02:56:09.240Z,29.08
2022-12-11T02:59:02.184Z,32.50
2022-12-11T03:01:48.915Z,32.85
2022-12-11T03:04:36.582Z,32.92
2022-12-11T03:07:27.880Z,31.45
2022-12-11T03:10:16.562Z,42.28
2022-12-11T03:13:04.418Z,34.90
2022-12-11T03:16:02.486Z,37.97
2022-12-11T03:19:30.952Z,27.42
2022-12-11T03:22:34.887Z,31.63
2022-12-11T03:25:54.784Z,38.50
2022-12-11T03:28:53.202Z,36.97
2022-12-11T03:31:44.351Z,31.63
2022-12-11T03:34:49.165Z,33.05
2022-12-11T03:37:38.858Z,30.40
2022-12-11T03:40:26.013Z,28.25
2022-12-11T03:43:14.003Z,27.25
2022-12-11T03:46:01.418Z,31.10
2022-12-11T03:48:49.161Z,32.28
2022-12-11T03:51:35.990Z,32.28
2022-12-11T03:54:23.725Z,30.13
2022-12-11T03:57:12.586Z,27.35
2022-12-11T03:59:59.544Z,27.27
2022-12-11T04:03:12.683Z,27.10
2022-12-11T04:06:00.012Z,24.45
2022-12-11T04:08:46.990Z,22.73
2022-12-11T04:11:36.613Z,20.75
2022-12-11T04:14:41.843Z,18.35
2022-12-11T04:17:48.613Z,21.95
2022-12-11T04:20:53.027Z,21.80
2022-12-11T04:23:58.472Z,22.60
2022-12-11T04:26:47.050Z,23.85
2022-12-11T04:29:33.779Z,24.77
2022-12-11T04:32:19.794Z,21.98
2022-12-11T04:35:08.607Z,20.50
2022-12-11T04:37:55.043Z,19.50
2022-12-11T04:40:42.078Z,21.65
2022-12-11T04:43:28.908Z,19.75
2022-12-11T04:46:21.051Z,22.27
2022-12-11T04:49:07.797Z,23.02
2022-12-11T04:51:54.202Z,21.23
2022-12-11T04:54:40.425Z,18.83
2022-12-11T04:57:26.933Z,21.00
2022-12-11T05:00:13.716Z,17.75
2022-12-11T05:03:00.391Z,15.80
2022-12-11T05:05:51.931Z,14.13
2022-12-11T05:08:41.147Z,15.68
2022-12-11T05:11:27.290Z,17.10
2022-12-11T05:14:14.352Z,18.90
2022-12-11T05:17:00.802Z,17.58
2022-12-11T05:19:50.404Z,20.15
2022-12-11T05:22:37.955Z,23.45
2022-12-11T05:25:25.025Z,18.20
2022-12-11T05:28:11.864Z,23.08
2022-12-11T05:31:05.083Z,22.77
2022-12-11T05:33:51.725Z,22.05
2022-12-11T05:36:38.625Z,24.50
2022-12-11T05:39:24.718Z,29.27
2022-12-11T05:42:11.387Z,25.75
2022-12-11T05:44:57.633Z,25.10
2022-12-11T05:47:44.857Z,26.45
2022-12-11T05:50:31.075Z,22.63
2022-12-11T05:53:17.560Z,23.60
2022-12-11T05:56:15.658Z,23.73
2022-12-11T05:59:02.772Z,25.40
2022-12-11T06:01:49.275Z,27.58
2022-12-11T06:04:36.187Z,30.15
2022-12-11T06:07:22.457Z,34.13
2022-12-11T06:10:09.830Z,37.08
2022-12-11T06:12:56.225Z,37.15
2022-12-11T06:15:43.201Z,34.33
2022-12-11T06:18:29.952Z,32.42
2022-12-11T06:21:22.275Z,35.15
2022-12-11T06:24:10.807Z,35.10
2022-12-11T06:26:57.483Z,32.28
2022-12-11T06:29:44.230Z,31.15
2022-12-11T06:32:30.877Z,27.15
2022-12-11T06:35:17.211Z,30.65
2022-12-11T06:38:03.599Z,33.28
2022-12-11T06:40:56.992Z,32.55
2022-12-11T06:43:43.633Z,31.88
2022-12-11T06:46:30.286Z,27.40
2022-12-11T06:49:16.654Z,26.92
2022-12-11T06:52:02.893Z,28.98
2022-12-11T06:54:49.704Z,30.85
2022-12-11T06:57:36.185Z,29.88
2022-12-11T07:00:23.064Z,44.88
2022-12-11T07:03:10.550Z,39.17
2022-12-11T07:06:02.521Z,34.15
2022-12-11T07:08:49.170Z,32.63
2022-12-11T07:11:35.707Z,31.80
2022-12-11T07:14:22.397Z,33.20
2022-12-11T07:17:09.280Z,38.85
2022-12-11T07:19:55.621Z,55.72
2022-12-11T07:22:46.419Z,86.28
2022-12-11T07:25:33.318Z,62.80
2022-12-11T07:28:20.176Z,40.30
2022-12-11T07:31:15.273Z,41.95
2022-12-11T07:34:04.813Z,32.83
2022-12-11T07:36:51.177Z,52.97
2022-12-11T07:39:38.329Z,37.08
2022-12-11T07:42:24.480Z,35.10
2022-12-11T07:45:11.983Z,36.92
2022-12-11T07:47:59.265Z,39.70
2022-12-11T07:50:45.999Z,38.65
2022-12-11T07:53:32.430Z,41.00
2022-12-11T07:56:20.047Z,35.72
2022-12-11T07:59:07.403Z,32.42
2022-12-11T08:01:54.359Z,29.10
2022-12-11T08:04:41.220Z,32.15
2022-12-11T08:07:27.533Z,32.55
2022-12-11T08:10:14.303Z,33.85
2022-12-11T08:13:01.586Z,32.70
2022-12-11T08:15:47.619Z,32.72
2022-12-11T08:18:36.305Z,34.03
2022-12-11T08:21:24.678Z,32.15
2022-12-11T08:24:11.686Z,28.23
2022-12-11T08:26:58.252Z,28.77
2022-12-11T08:29:45.935Z,31.77
2022-12-11T08:32:32.528Z,22.63
2022-12-11T08:35:19.485Z,28.25
2022-12-11T08:38:09.158Z,43.13
2022-12-11T08:40:55.845Z,69.15
2022-12-11T08:43:42.427Z,28.50
2022-12-11T08:46:32.803Z,26.95
2022-12-11T08:49:20.563Z,32.33
2022-12-11T08:52:07.690Z,26.70
2022-12-11T08:54:54.589Z,26.63
2022-12-11T08:57:41.544Z,31.73
2022-12-11T09:00:28.005Z,27.15
2022-12-11T09:03:15.011Z,26.17
2022-12-11T09:06:05.522Z,33.05
2022-12-11T09:08:53.835Z,25.45
2022-12-11T09:11:40.016Z,26.13
2022-12-11T09:14:27.302Z,25.70
2022-12-11T09:17:13.439Z,24.55
2022-12-11T09:20:00.449Z,30.88
2022-12-11T09:22:47.308Z,35.05
2022-12-11T09:25:40.714Z,25.67
2022-12-11T09:28:31.390Z,27.77
2022-12-11T09:31:26.998Z,27.00
2022-12-11T09:34:14.059Z,48.05
2022-12-11T09:37:03.554Z,53.60
2022-12-11T09:39:50.260Z,34.45
2022-12-11T09:42:50.129Z,33.20
2022-12-11T09:45:36.900Z,110.97
2022-12-11T09:48:25.625Z,82.28
2022-12-11T09:51:29.979Z,134.30
2022-12-11T09:54:17.355Z,94.38
2022-12-11T09:57:10.576Z,68.30
2022-12-11T10:00:39.724Z,65.05
2022-12-11T10:03:54.628Z,53.42
2022-12-11T10:07:05.672Z,47.35
2022-12-11T10:09:54.835Z,34.65
2022-12-11T10:12:57.577Z,55.50
2022-12-11T10:16:26.092Z,70.72
2022-12-11T10:19:25.599Z,37.63
2022-12-11T10:22:18.145Z,53.25
2022-12-11T10:25:11.542Z,49.42
2022-12-11T10:27:58.863Z,45.03
2022-12-11T10:30:58.521Z,44.50
2022-12-11T10:33:44.614Z,58.40
2022-12-11T10:36:34.927Z,43.58
2022-12-11T10:39:23.097Z,40.03
2022-12-11T10:42:18.857Z,43.92
2022-12-11T10:45:06.240Z,32.70
2022-12-11T10:48:02.783Z,25.63
2022-12-11T10:50:59.197Z,39.05
2022-12-11T10:53:53.974Z,74.43
2022-12-11T10:56:40.777Z,78.88
2022-12-11T10:59:38.497Z,44.92
2022-12-11T11:02:26.745Z,64.00
2022-12-11T11:05:26.248Z,42.92
2022-12-11T11:08:22.681Z,34.75
2022-12-11T11:11:23.268Z,38.33
2022-12-11T11:14:21.408Z,35.95
2022-12-11T11:17:15.026Z,28.60
2022-12-11T11:20:07.638Z,29.67
2022-12-11T11:22:58.915Z,33.13
2022-12-11T11:26:02.662Z,38.83
2022-12-11T11:28:51.868Z,38.38
2022-12-11T11:31:38.842Z,48.42
2022-12-11T11:34:26.360Z,46.28
2022-12-11T11:37:31.029Z,41.28
2022-12-11T11:40:22.407Z,61.85
2022-12-11T11:43:29.340Z,50.35
2022-12-11T11:46:35.249Z,51.35
2022-12-11T11:49:48.146Z,41.75
2022-12-11T11:52:41.321Z,41.78
2022-12-11T11:56:18.060Z,36.35
2022-12-11T11:59:28.778Z,35.15
2022-12-11T12:02:17.906Z,36.00
2022-12-11T12:05:05.309Z,29.48
2022-12-11T12:08:04.194Z,35.08
2022-12-11T12:11:17.614Z,28.70
2022-12-11T12:14:51.163Z,37.60
2022-12-11T12:18:13.907Z,32.40
2022-12-11T12:21:13.136Z,29.25
2022-12-11T12:24:03.204Z,28.30
2022-12-11T12:26:57.871Z,31.70
2022-12-11T12:29:51.124Z,34.92
2022-12-11T12:32:54.622Z,35.42
2022-12-11T12:35:54.412Z,53.05
2022-12-11T12:38:48.328Z,29.98
2022-12-11T12:42:01.342Z,35.53
2022-12-11T12:45:15.111Z,45.03
2022-12-11T12:48:02.343Z,41.55
2022-12-11T12:50:51.543Z,34.38
2022-12-11T12:53:39.172Z,25.13
2022-12-11T12:56:28.356Z,27.27
2022-12-11T12:59:29.151Z,23.15
2022-12-11T13:02:17.480Z,32.03
2022-12-11T13:05:20.472Z,30.50
2022-12-11T13:08:08.517Z,45.70
2022-12-11T13:11:08.471Z,32.65
2022-12-11T13:14:28.737Z,25.85
2022-12-11T13:17:22.120Z,36.92
2022-12-11T13:20:16.370Z,26.88
2022-12-11T13:23:06.573Z,25.98
2022-12-11T13:25:57.883Z,36.47
2022-12-11T13:28:45.100Z,33.20
2022-12-11T13:31:40.362Z,33.17
2022-12-11T13:34:32.620Z,49.67
2022-12-11T13:37:39.697Z,36.60
2022-12-11T13:40:31.471Z,38.17
2022-12-11T13:43:23.571Z,46.20
2022-12-11T13:46:12.940Z,39.97
2022-12-11T13:49:06.510Z,40.00
2022-12-11T13:51:59.783Z,37.15
2022-12-11T13:54:51.802Z,32.63
2022-12-11T13:57:46.721Z,46.90
2022-12-11T14:00:35.084Z,31.15
2022-12-11T14:03:26.872Z,27.25
2022-12-11T14:06:18.955Z,21.45
2022-12-11T14:09:07.837Z,28.40
2022-12-11T14:12:01.712Z,49.55
2022-12-11T14:14:57.316Z,62.97
2022-12-11T14:17:49.997Z,65.75
2022-12-11T14:20:39.668Z,58.40
2022-12-11T14:23:34.682Z,48.65
2022-12-11T14:26:28.071Z,35.88
2022-12-11T14:29:28.041Z,34.70
2022-12-11T14:32:43.660Z,51.45
2022-12-11T14:35:38.873Z,48.72
2022-12-11T14:38:37.748Z,52.97
2022-12-11T14:41:35.216Z,55.28
2022-12-11T14:44:22.806Z,46.72
2022-12-11T14:47:19.849Z,44.22
2022-12-11T14:50:13.175Z,57.35
2022-12-11T14:53:04.907Z,44.05
2022-12-11T14:55:56.800Z,48.88
2022-12-11T14:58:50.686Z,45.47
2022-12-11T15:01:39.888Z,43.42
2022-12-11T15:04:32.235Z,49.55
2022-12-11T15:07:22.149Z,48.13
2022-12-11T15:10:23.047Z,60.55
2022-12-11T15:13:11.382Z,65.93
2022-12-11T15:16:00.327Z,46.42
2022-12-11T15:18:52.143Z,44.08
2022-12-11T15:21:43.131Z,33.25
2022-12-11T15:24:38.975Z,39.63
2022-12-11T15:27:39.896Z,58.70
2022-12-11T15:30:32.342Z,53.63
2022-12-11T15:33:22.317Z,55.30
2022-12-11T15:36:35.042Z,57.70
2022-12-11T15:39:22.318Z,56.58
2022-12-11T15:42:14.152Z,47.38
2022-12-11T15:47:53.248Z,44.95
2022-12-11T15:50:40.448Z,60.05
2022-12-11T15:53:28.148Z,99.55
2022-12-11T15:56:16.605Z,92.38
2022-12-11T15:59:07.500Z,59.88
2022-12-11T16:01:55.324Z,54.92
2022-12-11T16:04:42.879Z,65.97
2022-12-11T16:07:29.958Z,60.92
2022-12-11T16:10:19.654Z,49.17
2022-12-11T16:13:06.518Z,42.60
2022-12-11T16:15:54.513Z,42.10
2022-12-11T16:18:44.708Z,31.70
2022-12-11T16:21:31.892Z,34.08
2022-12-11T16:24:18.944Z,33.50
2022-12-11T16:27:06.738Z,30.02
2022-12-11T16:29:54.154Z,28.05
2022-12-11T16:32:47.112Z,27.00
2022-12-11T16:35:33.460Z,25.50
2022-12-11T16:38:20.323Z,33.97
2022-12-11T16:41:07.494Z,24.20
2022-12-11T16:43:54.770Z,29.30
2022-12-11T16:46:43.790Z,38.13
2022-12-11T16:49:32.133Z,28.52
2022-12-11T16:52:22.129Z,29.10
2022-12-11T16:55:12.156Z,33.78
2022-12-11T16:57:58.880Z,26.95
2022-12-11T17:00:48.874Z,29.83
2022-12-11T17:03:35.557Z,41.92
2022-12-11T17:06:22.107Z,38.92
2022-12-11T17:09:08.976Z,37.35
2022-12-11T17:11:58.799Z,29.52
2022-12-11T17:14:45.713Z,34.10
2022-12-11T17:17:32.844Z,37.47
2022-12-11T17:20:20.451Z,51.25
2022-12-11T17:23:07.490Z,56.60
2022-12-11T17:25:55.422Z,32.97
2022-12-11T17:28:43.029Z,40.80
2022-12-11T17:31:29.897Z,48.63
2022-12-11T17:34:16.726Z,38.40
2022-12-11T17:37:03.386Z,36.35
2022-12-11T17:39:50.614Z,44.75
2022-12-11T17:42:37.553Z,48.78
2022-12-11T17:45:24.714Z,32.67
2022-12-11T17:48:13.713Z,34.40
2022-12-11T17:51:04.116Z,72.90
2022-12-11T17:53:51.878Z,43.92
2022-12-11T17:56:39.284Z,50.17
2022-12-11T17:59:26.222Z,39.00
2022-12-11T18:02:13.912Z,32.67
2022-12-11T18:05:00.760Z,34.40
2022-12-11T18:07:51.577Z,25.88
2022-12-11T18:10:41.821Z,34.63
2022-12-11T18:13:29.021Z,33.30
2022-12-11T18:16:23.957Z,40.55
2022-12-11T18:19:10.886Z,42.63
2022-12-11T18:21:57.319Z,53.75
2022-12-11T18:24:44.334Z,47.95
2022-12-11T18:27:31.361Z,51.35
2022-12-11T18:30:17.999Z,58.60
2022-12-11T18:33:06.619Z,49.88
2022-12-11T18:35:53.251Z,47.63
2022-12-11T18:38:40.284Z,50.15
2022-12-11T18:41:27.558Z,39.67
2022-12-11T18:44:14.476Z,36.60
2022-12-11T18:47:01.417Z,38.60
2022-12-11T18:49:48.340Z,42.28
2022-12-11T18:52:35.614Z,41.17
2022-12-11T18:55:25.194Z,44.70
2022-12-11T18:58:18.242Z,42.85
2022-12-11T19:01:14.294Z,57.75
2022-12-11T19:04:07.897Z,49.47
2022-12-11T19:06:58.222Z,44.03
2022-12-11T19:09:48.430Z,48.70
2022-12-11T19:12:36.479Z,36.30
2022-12-11T19:15:24.343Z,37.05
2022-12-11T19:18:11.876Z,36.67
2022-12-11T19:21:06.766Z,32.92
2022-12-11T19:23:59.580Z,31.77
2022-12-11T19:26:47.072Z,32.10
2022-12-11T19:29:33.876Z,37.72
2022-12-11T19:32:20.764Z,38.33
2022-12-11T19:35:07.781Z,38.72
2022-12-11T19:37:58.748Z,42.50
2022-12-11T19:40:45.907Z,42.20
2022-12-11T19:43:34.515Z,36.90
2022-12-11T19:46:22.095Z,38.40
2022-12-11T19:49:12.779Z,37.55
2022-12-11T19:51:59.560Z,40.45
2022-12-11T19:54:46.603Z,34.13
2022-12-11T19:57:34.090Z,38.05
2022-12-11T20:00:29.947Z,46.55
2022-12-11T20:03:16.970Z,27.67
2022-12-11T20:06:08.672Z,26.13
2022-12-11T20:08:55.683Z,24.17
2022-12-11T20:11:45.014Z,20.10
2022-12-11T20:14:32.691Z,25.27
2022-12-11T20:17:21.675Z,25.25
2022-12-11T20:20:15.371Z,21.35
2022-12-11T20:23:02.404Z,19.58
2022-12-11T20:25:55.915Z,25.90
2022-12-11T20:28:51.259Z,24.67
2022-12-11T20:31:39.366Z,25.48
2022-12-11T20:34:28.290Z,20.05
2022-12-11T20:37:15.213Z,20.25
2022-12-11T20:40:02.234Z,27.75
2022-12-11T20:42:51.497Z,24.45
2022-12-11T20:45:42.323Z,22.55
2022-12-11T20:48:29.470Z,20.60
2022-12-11T20:51:26.068Z,20.90
2022-12-11T20:54:13.270Z,29.38
2022-12-11T20:57:06.192Z,30.67
2022-12-11T20:59:53.098Z,29.50
2022-12-11T21:02:40.253Z,35.00
2022-12-11T21:05:26.860Z,21.13
2022-12-11T21:08:14.177Z,34.00
2022-12-11T21:11:01.593Z,19.73
2022-12-11T21:13:49.347Z,18.55
2022-12-11T21:16:38.318Z,25.42
2022-12-11T21:19:29.115Z,24.10
2022-12-11T21:22:15.766Z,29.88
2022-12-11T21:25:03.092Z,31.38
2022-12-11T21:27:53.294Z,21.63
2022-12-11T21:30:41.446Z,23.63
2022-12-11T21:33:30.932Z,22.85
2022-12-11T21:36:18.366Z,26.48
2022-12-11T21:39:05.166Z,20.92
2022-12-11T21:41:52.171Z,26.95
2022-12-11T21:47:45.619Z,27.77
2022-12-11T21:50:32.087Z,23.50
2022-12-11T21:53:18.579Z,22.45
2022-12-11T21:56:07.151Z,27.00
2022-12-11T21:58:56.383Z,22.15
2022-12-11T22:01:46.433Z,30.40
2022-12-11T22:04:32.998Z,21.63
2022-12-11T22:07:19.837Z,30.58
2022-12-11T22:10:06.798Z,22.70
2022-12-11T22:12:53.175Z,24.52
2022-12-11T22:15:40.655Z,26.55
2022-12-11T22:18:30.054Z,22.80
2022-12-11T22:21:16.571Z,24.25
2022-12-11T22:24:05.002Z,24.00
2022-12-11T22:26:52.992Z,19.10
2022-12-11T22:29:39.486Z,17.17
2022-12-11T22:32:27.651Z,21.73
2022-12-11T22:35:14.344Z,16.80
2022-12-11T22:38:01.112Z,17.67
2022-12-11T22:40:47.997Z,19.60
2022-12-11T22:43:37.245Z,21.05
2022-12-11T22:46:27.157Z,20.50
2022-12-11T22:49:14.454Z,18.90
2022-12-11T22:52:03.885Z,21.02
2022-12-11T22:54:51.169Z,19.88
2022-12-11T22:57:38.962Z,18.52
2022-12-11T23:00:28.646Z,21.35
2022-12-11T23:03:15.236Z,19.63
2022-12-11T23:06:06.008Z,20.52
2022-12-11T23:08:55.240Z,20.55
2022-12-11T23:11:42.395Z,20.63
2022-12-11T23:14:31.989Z,22.20
2022-12-11T23:17:18.718Z,19.08
2022-12-11T23:20:06.692Z,21.75
2022-12-11T23:22:53.854Z,18.70
2022-12-11T23:25:42.196Z,21.38
2022-12-11T23:28:28.811Z,17.90
2022-12-11T23:31:18.269Z,25.08
2022-12-11T23:34:05.319Z,23.63
2022-12-11T23:36:52.992Z,19.95
2022-12-11T23:39:39.406Z,22.92
2022-12-11T23:42:25.751Z,21.48
2022-12-11T23:45:12.990Z,23.77
2022-12-11T23:48:00.155Z,20.17
2022-12-11T23:50:47.199Z,17.90
2022-12-11T23:53:34.007Z,20.45
2022-12-11T23:56:26.052Z,21.13
2022-12-11T23:59:13.399Z,17.73
